메인 페이지
METAR-TAF:

METAR-TAF

공항 :

Lihue, 하와이, 미국

위도: 21-59-02N, 경도: 159-20-28W, 고도: 45m

현재 날씨관측

예보는 17분 전, 03:53시(UTC)에 발표되었습니다.
북북동14kt
온도 23°C
습도 78%
기압 1017 hPa
시정: 16.1km
고도 6000ft 상공 구름 많음

METAR: PHLI 180353Z 03014KT 10SM BKN060 23/19 A3003 RMK AO2 SLP166 T02330189

시각: 18:10 (04:10 UTC)

예보

예보는 4 시간 42분 전, 23:28시(UTC)에 발표되었습니다.
예보 대상 시간: 18일 00시부터 18일 24시까지 (UTC)
북동14kt
시정: 10km
고도 2500ft 상공 구름 조금
고도 5000ft 상공 구름 보통
18일 0600시부터 (UTC)
북동12kt
시정: 10km
고도 2500ft 상공 구름 보통
고도 4000ft 상공 구름 많음
시계 내 소나기
18일 1900시부터 (UTC)
북동15kt
시정: 10km
고도 2500ft 상공 구름 조금
고도 4500ft 상공 구름 보통

TAF: PHLI 172328Z 1800/1824 04014KT P6SM FEW025 SCT050 FM180600 04012KT P6SM VCSH SCT025 BKN040 FM181900 04015KT P6SM FEW025 SCT045

4,000개 이상의 공항 관측 자료 및 예보 (METAR 및 TAF 보고).

지도상에서 검색 가능한 기상관측소가 노란 점과 빨간 점으로 표시되어 있습니다.

기상관측소 명을 보려면 표시 위로 마우스를 이동하세요.

날씨 관측과 예보를 보려면 클릭하세요.

지도 변경 : 확대하려면 엑스 표시가 있는 녹색 버튼, 축소하려면 빼기 표시가 있는 녹색 버튼, 다음 페이지의 지도를 보려면 녹색 화살표를 클릭하세요.


METAR-TAF: